createdAt,value
2022-07-26T00:00:54.048Z,4.30
2022-07-26T00:03:20.507Z,3.37
2022-07-26T00:05:47.020Z,5.40
2022-07-26T00:08:13.497Z,5.40
2022-07-26T00:10:45.795Z,4.40
2022-07-26T00:13:12.816Z,6.03
2022-07-26T00:15:39.776Z,4.23
2022-07-26T00:18:06.369Z,3.93
2022-07-26T00:20:38.486Z,3.67
2022-07-26T00:23:05.397Z,7.10
2022-07-26T00:25:32.018Z,5.53
2022-07-26T00:27:58.397Z,5.23
2022-07-26T00:30:25.044Z,7.83
2022-07-26T00:32:52.696Z,4.67
2022-07-26T00:35:20.493Z,5.73
2022-07-26T00:37:47.004Z,4.57
2022-07-26T00:40:14.389Z,6.83
2022-07-26T00:42:41.037Z,4.20
2022-07-26T00:45:09.313Z,3.37
2022-07-26T00:47:36.157Z,6.57
2022-07-26T00:50:04.195Z,6.40
2022-07-26T00:52:30.786Z,5.00
2022-07-26T00:54:57.963Z,4.07
2022-07-26T00:57:24.561Z,3.43
2022-07-26T00:59:51.195Z,4.80
2022-07-26T01:02:18.363Z,3.03
2022-07-26T01:04:45.497Z,5.93
2022-07-26T01:07:15.214Z,9.37
2022-07-26T01:09:42.650Z,7.03
2022-07-26T01:12:09.507Z,6.23
2022-07-26T01:14:35.987Z,8.20
2022-07-26T01:17:02.755Z,3.93
2022-07-26T01:19:29.175Z,6.97
2022-07-26T01:21:55.576Z,4.63
2022-07-26T01:24:21.961Z,4.50
2022-07-26T01:26:48.317Z,3.93
2022-07-26T01:29:14.724Z,3.53
2022-07-26T01:31:41.193Z,5.13
2022-07-26T01:34:07.973Z,4.63
2022-07-26T01:36:34.516Z,6.57
2022-07-26T01:39:00.875Z,7.97
2022-07-26T01:41:37.846Z,8.83
2022-07-26T01:44:06.313Z,6.90
2022-07-26T01:46:34.015Z,4.47
2022-07-26T01:49:01.657Z,5.30
2022-07-26T01:51:28.268Z,8.43
2022-07-26T01:53:54.619Z,4.80
2022-07-26T01:56:21.013Z,5.77
2022-07-26T01:58:47.403Z,3.90
2022-07-26T02:01:13.763Z,5.90
2022-07-26T02:03:40.170Z,10.00
2022-07-26T02:06:07.183Z,4.50
2022-07-26T02:08:33.569Z,6.90
2022-07-26T02:11:00.579Z,8.13
2022-07-26T02:13:42.245Z,5.50
2022-07-26T02:16:11.503Z,4.50
2022-07-26T02:18:38.269Z,5.60
2022-07-26T02:21:05.777Z,10.40
2022-07-26T02:23:33.508Z,5.87
2022-07-26T02:26:00.622Z,6.70
2022-07-26T02:28:27.537Z,5.07
2022-07-26T02:30:54.279Z,6.23
2022-07-26T02:33:20.874Z,6.50
2022-07-26T02:35:47.726Z,5.40
2022-07-26T02:38:16.281Z,9.43
2022-07-26T02:40:44.004Z,8.20
2022-07-26T02:43:11.213Z,7.17
2022-07-26T02:45:37.895Z,9.53
2022-07-26T02:48:04.725Z,8.43
2022-07-26T02:50:32.039Z,6.30
2022-07-26T02:52:58.793Z,10.03
2022-07-26T02:55:26.849Z,12.50
2022-07-26T02:57:53.500Z,8.97
2022-07-26T03:00:23.256Z,7.37
2022-07-26T03:02:51.239Z,6.10
2022-07-26T03:05:18.435Z,7.87
2022-07-26T03:07:44.975Z,8.50
2022-07-26T03:10:11.674Z,7.33
2022-07-26T03:12:38.081Z,8.50
2022-07-26T03:15:05.473Z,5.50
2022-07-26T03:17:32.216Z,6.37
2022-07-26T03:19:58.843Z,9.83
2022-07-26T03:22:25.293Z,6.87
2022-07-26T03:24:51.673Z,7.50
2022-07-26T03:27:18.014Z,5.73
2022-07-26T03:29:44.392Z,10.60
2022-07-26T03:32:10.828Z,10.73
2022-07-26T03:34:37.209Z,10.90
2022-07-26T03:37:03.998Z,11.37
2022-07-26T03:39:30.482Z,6.53
2022-07-26T03:41:56.915Z,10.03
2022-07-26T03:44:23.314Z,11.70
2022-07-26T03:46:49.669Z,13.03
2022-07-26T03:49:17.223Z,12.23
2022-07-26T03:51:43.978Z,16.40
2022-07-26T03:54:10.894Z,12.70
2022-07-26T03:56:37.830Z,8.37
2022-07-26T03:59:06.910Z,13.17
2022-07-26T04:01:35.087Z,9.77
2022-07-26T04:04:01.828Z,8.47
2022-07-26T04:06:28.388Z,12.73
2022-07-26T04:08:55.118Z,17.00
2022-07-26T04:11:21.606Z,8.63
2022-07-26T04:13:53.304Z,10.83
2022-07-26T04:16:19.807Z,11.73
2022-07-26T04:18:46.417Z,11.33
2022-07-26T04:21:12.856Z,13.53
2022-07-26T04:23:39.297Z,9.83
2022-07-26T04:26:05.830Z,8.60
2022-07-26T04:28:33.211Z,12.47
2022-07-26T04:31:00.848Z,12.30
2022-07-26T04:33:27.615Z,12.30
2022-07-26T04:35:54.100Z,8.90
2022-07-26T04:38:20.615Z,9.57
2022-07-26T04:40:46.998Z,10.83
2022-07-26T04:43:15.654Z,13.00
2022-07-26T04:45:44.005Z,7.90
2022-07-26T04:48:10.393Z,7.43
2022-07-26T04:50:36.912Z,18.80
2022-07-26T04:53:03.337Z,13.90
2022-07-26T04:55:29.736Z,8.40
2022-07-26T04:57:56.225Z,10.83
2022-07-26T05:00:24.935Z,11.03
2022-07-26T05:02:55.463Z,8.20
2022-07-26T05:05:22.803Z,5.50
2022-07-26T05:07:52.048Z,8.70
2022-07-26T05:10:19.809Z,14.20
2022-07-26T05:12:47.149Z,11.07
2022-07-26T05:15:14.718Z,9.80
2022-07-26T05:17:43.504Z,7.53
2022-07-26T05:20:12.355Z,13.23
2022-07-26T05:22:39.366Z,14.37
2022-07-26T05:25:07.461Z,10.37
2022-07-26T05:27:34.073Z,13.00
2022-07-26T05:30:00.748Z,13.57
2022-07-26T05:32:28.154Z,8.83
2022-07-26T05:34:54.651Z,10.53
2022-07-26T05:37:21.111Z,10.13
2022-07-26T05:39:47.496Z,8.80
2022-07-26T05:42:13.868Z,10.80
2022-07-26T05:44:42.471Z,11.70
2022-07-26T05:47:10.124Z,11.90
2022-07-26T05:49:40.465Z,16.07
2022-07-26T05:52:07.201Z,19.67
2022-07-26T05:54:33.560Z,13.13
2022-07-26T05:56:59.906Z,13.10
2022-07-26T05:59:26.271Z,13.60
2022-07-26T06:01:56.187Z,10.73
2022-07-26T06:04:26.862Z,11.03
2022-07-26T06:06:54.702Z,16.27
2022-07-26T06:09:24.061Z,11.70
2022-07-26T06:11:50.773Z,9.80
2022-07-26T06:14:17.116Z,12.20
2022-07-26T06:16:43.592Z,11.50
2022-07-26T06:19:09.985Z,20.47
2022-07-26T06:21:36.402Z,15.50
2022-07-26T06:24:02.920Z,10.03
2022-07-26T06:26:29.320Z,11.60
2022-07-26T06:28:55.805Z,10.90
2022-07-26T06:31:23.097Z,12.50
2022-07-26T06:33:49.626Z,11.80
2022-07-26T06:36:16.113Z,15.10
2022-07-26T06:38:42.650Z,14.53
2022-07-26T06:41:09.070Z,13.10
2022-07-26T06:43:35.475Z,17.40
2022-07-26T06:46:01.986Z,19.53
2022-07-26T06:48:28.407Z,16.03
2022-07-26T06:50:55.397Z,12.70
2022-07-26T06:53:21.820Z,12.47
2022-07-26T06:55:48.290Z,14.17
2022-07-26T06:58:14.657Z,18.77
2022-07-26T07:00:41.156Z,13.83
2022-07-26T07:03:07.621Z,15.00
2022-07-26T07:05:34.400Z,12.57
2022-07-26T07:08:00.772Z,12.83
2022-07-26T07:10:28.757Z,15.90
2022-07-26T07:12:56.118Z,16.10
2022-07-26T07:15:22.598Z,16.27
2022-07-26T07:17:51.488Z,11.63
2022-07-26T07:20:18.025Z,15.63
2022-07-26T07:22:44.406Z,11.40
2022-07-26T07:25:10.777Z,13.53
2022-07-26T07:27:41.181Z,19.20
2022-07-26T07:30:08.587Z,12.13
2022-07-26T07:32:35.652Z,14.20
2022-07-26T07:35:02.174Z,12.47
2022-07-26T07:37:28.589Z,13.23
2022-07-26T07:40:15.136Z,12.63
2022-07-26T07:42:41.521Z,13.73
2022-07-26T07:45:09.256Z,19.67
2022-07-26T07:47:35.831Z,17.23
2022-07-26T07:50:02.314Z,15.43
2022-07-26T07:52:28.799Z,15.70
2022-07-26T07:55:11.639Z,22.60
2022-07-26T07:57:41.531Z,16.50
2022-07-26T08:00:08.847Z,16.60
2022-07-26T08:02:35.207Z,13.23
2022-07-26T08:05:04.895Z,17.53
2022-07-26T08:07:40.855Z,19.33
2022-07-26T08:10:08.489Z,22.07
2022-07-26T08:12:34.885Z,20.77
2022-07-26T08:15:02.452Z,24.53
2022-07-26T08:17:35.239Z,15.27
2022-07-26T08:20:06.841Z,19.13
2022-07-26T08:22:35.488Z,20.80
2022-07-26T08:25:01.919Z,20.60
2022-07-26T08:27:28.805Z,16.77
2022-07-26T08:29:55.170Z,17.80
2022-07-26T08:32:21.587Z,17.13
2022-07-26T08:34:48.031Z,19.67
2022-07-26T08:37:17.393Z,20.53
2022-07-26T08:39:44.953Z,19.77
2022-07-26T08:42:22.679Z,17.57
2022-07-26T08:44:51.367Z,17.00
2022-07-26T08:47:20.850Z,20.27
2022-07-26T08:50:04.851Z,19.30
2022-07-26T08:52:31.410Z,17.70
2022-07-26T08:54:57.814Z,18.17
2022-07-26T08:57:24.220Z,16.43
2022-07-26T09:00:19.906Z,18.27
2022-07-26T09:02:46.976Z,20.00
2022-07-26T09:05:13.873Z,24.40
2022-07-26T09:07:41.339Z,18.43
2022-07-26T09:10:10.428Z,20.53
2022-07-26T09:12:37.994Z,20.53
2022-07-26T09:15:06.897Z,23.93
2022-07-26T09:17:45.887Z,19.80
2022-07-26T09:20:32.718Z,17.87
2022-07-26T09:23:08.864Z,21.73
2022-07-26T09:25:40.146Z,25.90
2022-07-26T09:28:30.953Z,18.80
2022-07-26T09:31:00.465Z,18.60
2022-07-26T09:33:42.992Z,25.00
2022-07-26T09:36:09.784Z,20.80
2022-07-26T09:38:47.226Z,20.77
2022-07-26T09:41:34.758Z,18.40
2022-07-26T09:44:19.169Z,19.10
2022-07-26T09:46:57.350Z,17.70
2022-07-26T09:49:29.550Z,21.17
2022-07-26T09:52:20.826Z,16.53
2022-07-26T09:54:49.568Z,16.40
2022-07-26T09:57:20.289Z,17.30
2022-07-26T09:59:47.423Z,15.57
2022-07-26T10:02:14.232Z,20.30
2022-07-26T10:04:43.527Z,12.53
2022-07-26T10:07:10.673Z,14.70
2022-07-26T10:09:55.379Z,12.57
2022-07-26T10:12:30.342Z,12.90
2022-07-26T10:14:57.176Z,12.83
2022-07-26T10:17:30.881Z,14.90
2022-07-26T10:19:59.225Z,11.07
2022-07-26T10:22:30.490Z,15.57
2022-07-26T10:25:17.852Z,10.97
2022-07-26T10:27:45.905Z,9.07
2022-07-26T10:30:22.388Z,14.23
2022-07-26T10:32:54.719Z,10.97
2022-07-26T10:35:36.465Z,10.73
2022-07-26T10:38:23.457Z,12.07
2022-07-26T10:40:58.223Z,13.20
2022-07-26T10:43:42.079Z,8.77
2022-07-26T10:46:18.603Z,11.23
2022-07-26T10:48:58.643Z,7.40
2022-07-26T10:51:36.058Z,6.80
2022-07-26T10:54:05.416Z,12.50
2022-07-26T10:56:33.667Z,8.10
2022-07-26T10:59:00.935Z,8.60
2022-07-26T11:01:42.058Z,7.17
2022-07-26T11:04:21.900Z,9.00
2022-07-26T11:06:48.951Z,6.33
2022-07-26T11:09:15.963Z,5.50
2022-07-26T11:11:46.821Z,6.57
2022-07-26T11:14:17.360Z,5.40
2022-07-26T11:16:47.183Z,5.43
2022-07-26T11:19:15.401Z,4.57
2022-07-26T11:21:42.513Z,5.60
2022-07-26T11:24:09.528Z,6.73
2022-07-26T11:26:46.767Z,6.27
2022-07-26T11:29:17.089Z,4.10
2022-07-26T11:31:51.594Z,6.03
2022-07-26T11:34:33.060Z,4.10
2022-07-26T11:37:02.229Z,6.80
2022-07-26T11:39:30.530Z,5.93
2022-07-26T11:42:05.361Z,5.70
2022-07-26T11:44:32.524Z,7.70
2022-07-26T11:46:59.469Z,6.40
2022-07-26T11:52:24.878Z,5.83
2022-07-26T11:54:53.191Z,4.03
2022-07-26T11:57:20.203Z,6.70
2022-07-26T11:59:48.384Z,6.50
2022-07-26T12:02:15.479Z,4.00
2022-07-26T12:04:43.650Z,7.07
2022-07-26T12:07:15.861Z,5.00
2022-07-26T12:09:51.604Z,5.03
2022-07-26T12:12:31.240Z,4.90
2022-07-26T12:15:16.074Z,3.57
2022-07-26T12:17:59.170Z,4.27
2022-07-26T12:20:28.499Z,3.73
2022-07-26T12:22:57.516Z,5.83
2022-07-26T12:25:28.255Z,4.90
2022-07-26T12:27:54.776Z,3.80
2022-07-26T12:30:22.737Z,4.60
2022-07-26T12:32:51.850Z,5.17
2022-07-26T12:35:29.259Z,5.37
2022-07-26T12:37:55.667Z,5.30
2022-07-26T12:40:39.544Z,6.63
2022-07-26T12:43:05.888Z,5.00
2022-07-26T12:45:34.778Z,4.80
2022-07-26T12:48:06.703Z,6.17
2022-07-26T12:50:33.201Z,4.00
2022-07-26T12:53:02.551Z,4.50
2022-07-26T12:55:29.198Z,7.43
2022-07-26T12:57:55.876Z,4.37
2022-07-26T13:00:24.160Z,4.80
2022-07-26T13:02:51.374Z,7.47
2022-07-26T13:05:17.847Z,4.90
2022-07-26T13:07:44.439Z,5.93
2022-07-26T13:12:57.468Z,4.00
2022-07-26T13:15:23.847Z,3.57
2022-07-26T13:18:03.180Z,4.07
2022-07-26T13:20:30.566Z,4.17
2022-07-26T13:22:57.050Z,3.70
2022-07-26T13:25:23.543Z,4.27
2022-07-26T13:27:51.481Z,4.17
2022-07-26T13:30:18.176Z,5.00
2022-07-26T13:32:45.086Z,5.27
2022-07-26T13:35:11.873Z,3.67
2022-07-26T13:37:39.204Z,3.20
2022-07-26T13:40:06.440Z,3.27
2022-07-26T13:42:33.043Z,3.93
2022-07-26T13:44:59.514Z,4.93
2022-07-26T13:47:26.143Z,3.60
2022-07-26T13:49:52.601Z,4.17
2022-07-26T13:52:19.167Z,4.37
2022-07-26T13:54:45.752Z,5.00
2022-07-26T13:57:12.290Z,3.80
2022-07-26T13:59:38.720Z,4.60
2022-07-26T14:02:07.959Z,3.17
2022-07-26T14:04:34.998Z,3.80
2022-07-26T14:07:01.618Z,3.90
2022-07-26T14:09:28.177Z,4.50
2022-07-26T14:11:54.761Z,5.07
2022-07-26T14:14:21.540Z,3.93
2022-07-26T14:16:49.553Z,3.27
2022-07-26T14:19:16.403Z,5.87
2022-07-26T14:21:58.757Z,4.97
2022-07-26T14:24:27.600Z,3.30
2022-07-26T14:26:58.603Z,6.10
2022-07-26T14:29:26.325Z,4.70
2022-07-26T14:31:53.421Z,2.40
2022-07-26T14:34:20.192Z,2.50
2022-07-26T14:36:46.925Z,2.50
2022-07-26T14:39:13.359Z,2.83
2022-07-26T14:41:39.872Z,2.80
2022-07-26T14:44:06.731Z,3.00
2022-07-26T14:46:33.307Z,4.30
2022-07-26T14:48:59.825Z,4.80
2022-07-26T14:51:26.433Z,2.80
2022-07-26T14:53:52.927Z,2.63
2022-07-26T14:56:19.368Z,3.03
2022-07-26T14:58:45.847Z,4.93
2022-07-26T15:01:12.450Z,3.27
2022-07-26T15:03:39.030Z,2.70
2022-07-26T15:06:05.489Z,2.43
2022-07-26T15:08:31.926Z,3.53
2022-07-26T15:10:58.588Z,2.83
2022-07-26T15:13:25.131Z,2.20
2022-07-26T15:15:51.925Z,4.00
2022-07-26T15:18:18.357Z,2.43
2022-07-26T15:20:44.824Z,3.67
2022-07-26T15:23:12.373Z,3.00
2022-07-26T15:25:38.878Z,5.87
2022-07-26T15:28:05.573Z,2.20
2022-07-26T15:30:33.029Z,2.50
2022-07-26T15:33:01.964Z,3.70
2022-07-26T15:35:29.896Z,2.90
2022-07-26T15:37:57.618Z,2.90
2022-07-26T15:40:24.548Z,3.93
2022-07-26T15:42:52.152Z,3.47
2022-07-26T15:45:20.007Z,3.50
2022-07-26T15:47:59.316Z,2.90
2022-07-26T15:50:33.576Z,4.33
2022-07-26T15:53:00.038Z,3.47
2022-07-26T15:55:26.553Z,2.50
2022-07-26T15:57:53.029Z,2.60
2022-07-26T16:00:19.440Z,4.23
2022-07-26T16:02:45.921Z,6.37
2022-07-26T16:05:13.234Z,2.63
2022-07-26T16:07:43.990Z,2.50
2022-07-26T16:10:12.164Z,3.20
2022-07-26T16:12:39.842Z,3.60
2022-07-26T16:15:08.226Z,3.13
2022-07-26T16:17:34.832Z,5.37
2022-07-26T16:20:01.605Z,3.00
2022-07-26T16:22:28.181Z,2.97
2022-07-26T16:24:54.543Z,2.67
2022-07-26T16:27:20.893Z,3.13
2022-07-26T16:29:51.986Z,2.17
2022-07-26T16:32:20.527Z,4.03
2022-07-26T16:34:46.882Z,2.70
2022-07-26T16:37:13.270Z,2.53
2022-07-26T16:39:39.760Z,5.73
2022-07-26T16:42:07.335Z,3.53
2022-07-26T16:44:35.897Z,2.70
2022-07-26T16:47:02.493Z,3.30
2022-07-26T16:49:29.030Z,3.00
2022-07-26T16:51:56.795Z,3.03
2022-07-26T16:54:23.274Z,2.87
2022-07-26T16:56:49.709Z,2.67
2022-07-26T16:59:16.676Z,2.37
2022-07-26T17:01:43.642Z,3.00
2022-07-26T17:04:10.301Z,3.67
2022-07-26T17:06:37.052Z,3.37
2022-07-26T17:09:03.554Z,2.63
2022-07-26T17:11:29.930Z,3.23
2022-07-26T17:13:56.278Z,3.03
2022-07-26T17:16:25.043Z,2.77
2022-07-26T17:18:52.595Z,2.60
2022-07-26T17:21:19.016Z,2.40
2022-07-26T17:23:45.447Z,2.33
2022-07-26T17:26:11.791Z,3.40
2022-07-26T17:28:38.142Z,3.70
2022-07-26T17:31:04.535Z,4.10
2022-07-26T17:33:31.028Z,2.30
2022-07-26T17:35:57.448Z,2.70
2022-07-26T17:38:28.761Z,2.53
2022-07-26T17:40:56.616Z,6.60
2022-07-26T17:43:23.002Z,3.33
2022-07-26T17:45:50.307Z,3.00
2022-07-26T17:48:16.698Z,3.43
2022-07-26T17:50:43.094Z,3.63
2022-07-26T17:53:09.460Z,2.83
2022-07-26T17:55:35.941Z,3.37
2022-07-26T17:58:02.383Z,3.40
2022-07-26T18:00:29.465Z,3.00
2022-07-26T18:02:56.820Z,2.60
2022-07-26T18:05:27.236Z,2.90
2022-07-26T18:07:59.144Z,4.07
2022-07-26T18:10:27.504Z,2.80
2022-07-26T18:12:54.673Z,3.33
2022-07-26T18:15:21.332Z,3.30
2022-07-26T18:17:47.740Z,3.00
2022-07-26T18:20:14.106Z,3.43
2022-07-26T18:22:40.541Z,2.73
2022-07-26T18:25:07.711Z,2.97
2022-07-26T18:27:34.085Z,3.83
2022-07-26T18:30:00.522Z,2.87
2022-07-26T18:32:27.186Z,7.10
2022-07-26T18:34:53.694Z,3.20
2022-07-26T18:37:20.835Z,3.93
2022-07-26T18:39:47.885Z,4.20
2022-07-26T18:42:14.400Z,5.50
2022-07-26T18:44:41.076Z,4.20
2022-07-26T18:47:07.902Z,2.40
2022-07-26T18:49:35.136Z,6.40
2022-07-26T18:52:08.371Z,3.63
2022-07-26T18:54:35.883Z,3.13
2022-07-26T18:57:02.343Z,2.90
2022-07-26T18:59:29.696Z,3.00
2022-07-26T19:01:57.752Z,5.67
2022-07-26T19:04:24.859Z,3.73
2022-07-26T19:06:51.506Z,5.23
2022-07-26T19:09:18.396Z,3.47
2022-07-26T19:11:47.934Z,4.60
2022-07-26T19:14:14.381Z,3.60
2022-07-26T19:16:40.858Z,2.90
2022-07-26T19:19:07.269Z,3.37
2022-07-26T19:21:33.717Z,7.10
2022-07-26T19:24:00.188Z,4.43
2022-07-26T19:26:27.420Z,3.97
2022-07-26T19:28:53.989Z,5.27
2022-07-26T19:31:21.212Z,3.83
2022-07-26T19:33:47.609Z,3.20
2022-07-26T19:36:18.060Z,3.90
2022-07-26T19:38:52.769Z,3.53
2022-07-26T19:41:19.875Z,3.70
2022-07-26T19:43:46.400Z,7.90
2022-07-26T19:46:13.051Z,9.53
2022-07-26T19:48:39.644Z,3.33
2022-07-26T19:51:06.208Z,6.20
2022-07-26T19:53:32.632Z,7.70
2022-07-26T19:55:59.010Z,5.07
2022-07-26T19:58:26.146Z,6.73
2022-07-26T20:00:53.583Z,3.70
2022-07-26T20:03:19.982Z,6.53
2022-07-26T20:05:46.499Z,4.53
2022-07-26T20:08:13.402Z,4.27
2022-07-26T20:10:39.938Z,6.20
2022-07-26T20:13:06.375Z,7.20
2022-07-26T20:15:32.941Z,3.83
2022-07-26T20:17:59.314Z,5.37
2022-07-26T20:20:25.718Z,4.47
2022-07-26T20:22:52.081Z,5.37
2022-07-26T20:25:21.634Z,3.47
2022-07-26T20:27:49.783Z,5.70
2022-07-26T20:30:16.262Z,7.10
2022-07-26T20:32:43.631Z,6.13
2022-07-26T20:35:10.206Z,3.20
2022-07-26T20:37:36.933Z,4.97
2022-07-26T20:40:04.407Z,9.47
2022-07-26T20:42:30.747Z,6.23
2022-07-26T20:44:58.255Z,5.63
2022-07-26T20:47:25.295Z,3.07
2022-07-26T20:49:51.801Z,5.70
2022-07-26T20:52:18.533Z,5.00
2022-07-26T20:54:44.941Z,6.77
2022-07-26T20:57:11.370Z,7.07
2022-07-26T20:59:38.186Z,6.40
2022-07-26T21:02:05.037Z,10.97
2022-07-26T21:04:32.212Z,6.60
2022-07-26T21:06:58.864Z,4.87
2022-07-26T21:09:30.377Z,8.00
2022-07-26T21:11:56.967Z,4.77
2022-07-26T21:14:23.504Z,7.63
2022-07-26T21:16:50.227Z,7.63
2022-07-26T21:19:16.752Z,6.57
2022-07-26T21:21:43.266Z,8.03
2022-07-26T21:24:09.705Z,6.00
2022-07-26T21:26:36.300Z,5.53
2022-07-26T21:29:02.979Z,7.83
2022-07-26T21:31:29.526Z,6.20
2022-07-26T21:33:56.185Z,5.70
2022-07-26T21:36:22.778Z,4.53
2022-07-26T21:38:49.237Z,7.87
2022-07-26T21:41:15.662Z,7.23
2022-07-26T21:43:42.196Z,9.00
2022-07-26T21:46:12.802Z,6.53
2022-07-26T21:48:39.786Z,6.97
2022-07-26T21:51:06.203Z,6.43
2022-07-26T21:53:32.624Z,5.03
2022-07-26T21:55:59.029Z,8.20
2022-07-26T21:58:27.990Z,5.33
2022-07-26T22:01:03.417Z,7.70
2022-07-26T22:03:35.814Z,4.83
2022-07-26T22:06:02.389Z,7.00
2022-07-26T22:08:28.958Z,6.37
2022-07-26T22:10:55.354Z,7.33
2022-07-26T22:13:21.773Z,6.37
2022-07-26T22:15:48.309Z,6.43
2022-07-26T22:18:14.879Z,6.53
2022-07-26T22:20:42.194Z,4.00
2022-07-26T22:23:10.877Z,5.27
2022-07-26T22:25:38.425Z,6.40
2022-07-26T22:28:06.224Z,6.37
2022-07-26T22:30:32.835Z,5.70
2022-07-26T22:33:01.410Z,7.80
2022-07-26T22:35:32.281Z,3.33
2022-07-26T22:38:03.650Z,6.80
2022-07-26T22:40:30.234Z,5.73
2022-07-26T22:42:58.598Z,7.43
2022-07-26T22:45:26.446Z,7.10
2022-07-26T22:47:56.178Z,9.67
2022-07-26T22:50:24.821Z,6.70
2022-07-26T22:52:52.059Z,6.27
2022-07-26T22:55:18.637Z,5.83
2022-07-26T22:57:45.491Z,5.97
2022-07-26T23:00:14.133Z,6.23
2022-07-26T23:02:40.622Z,4.23
2022-07-26T23:05:07.781Z,5.37
2022-07-26T23:07:35.716Z,7.80
2022-07-26T23:10:02.236Z,5.50
2022-07-26T23:12:28.708Z,7.23
2022-07-26T23:14:55.187Z,5.20
2022-07-26T23:17:21.662Z,10.77
2022-07-26T23:19:48.090Z,4.97
2022-07-26T23:22:14.765Z,5.73
2022-07-26T23:24:41.278Z,6.90
2022-07-26T23:27:10.250Z,5.80
2022-07-26T23:29:37.250Z,5.13
2022-07-26T23:32:03.833Z,5.73
2022-07-26T23:34:30.193Z,4.03
2022-07-26T23:36:56.581Z,6.30
2022-07-26T23:39:22.997Z,4.70
2022-07-26T23:41:49.358Z,4.10
2022-07-26T23:44:15.790Z,3.47
2022-07-26T23:46:42.280Z,4.93
2022-07-26T23:49:09.075Z,7.17
2022-07-26T23:51:35.712Z,5.53
2022-07-26T23:54:02.141Z,5.80
2022-07-26T23:56:28.553Z,4.30
2022-07-26T23:58:54.981Z,6.30
